createdAt,value
2017-11-03T00:01:12.373Z,99.90
2017-11-03T00:03:39.921Z,99.90
2017-11-03T00:06:07.494Z,99.90
2017-11-03T00:08:35.060Z,99.90
2017-11-03T00:11:02.573Z,99.90
2017-11-03T00:13:30.107Z,99.90
2017-11-03T00:15:57.719Z,99.90
2017-11-03T00:18:25.239Z,99.90
2017-11-03T00:20:52.774Z,99.90
2017-11-03T00:23:20.283Z,99.90
2017-11-03T00:25:47.798Z,99.90
2017-11-03T00:28:15.323Z,99.90
2017-11-03T00:30:42.827Z,99.90
2017-11-03T00:33:11.121Z,99.90
2017-11-03T00:35:38.638Z,99.90
2017-11-03T00:38:06.164Z,99.90
2017-11-03T00:40:33.699Z,99.90
2017-11-03T00:43:01.211Z,99.90
2017-11-03T00:45:28.732Z,99.90
2017-11-03T00:47:56.238Z,99.90
2017-11-03T00:50:23.786Z,99.90
2017-11-03T00:52:51.327Z,99.90
2017-11-03T00:55:18.892Z,99.90
2017-11-03T00:57:46.414Z,99.90
2017-11-03T01:00:13.935Z,99.90
2017-11-03T01:02:41.463Z,99.90
2017-11-03T01:05:09.031Z,99.90
2017-11-03T01:07:36.540Z,99.90
2017-11-03T01:10:04.832Z,99.90
2017-11-03T01:12:32.383Z,99.90
2017-11-03T01:15:00.664Z,99.90
2017-11-03T01:17:28.219Z,99.90
2017-11-03T01:19:56.520Z,99.90
2017-11-03T01:22:24.045Z,99.90
2017-11-03T01:24:51.560Z,99.90
2017-11-03T01:27:19.070Z,99.90
2017-11-03T01:29:47.348Z,99.90
2017-11-03T01:32:14.892Z,99.90
2017-11-03T01:34:42.413Z,99.90
2017-11-03T01:37:09.931Z,99.90
2017-11-03T01:39:39.010Z,99.90
2017-11-03T01:42:07.300Z,99.90
2017-11-03T01:44:35.576Z,99.90
2017-11-03T01:47:03.851Z,99.90
2017-11-03T01:49:32.156Z,99.90
2017-11-03T01:51:59.687Z,99.90
2017-11-03T01:54:27.978Z,99.90
2017-11-03T01:56:55.512Z,99.90
2017-11-03T01:59:23.812Z,99.90
2017-11-03T02:01:51.413Z,99.90
2017-11-03T02:04:18.930Z,99.90
2017-11-03T02:06:46.457Z,99.90
2017-11-03T02:09:13.980Z,99.90
2017-11-03T02:11:41.547Z,99.90
2017-11-03T02:14:09.074Z,99.90
2017-11-03T02:16:36.641Z,99.90
2017-11-03T02:19:04.180Z,99.90
2017-11-03T02:21:31.695Z,99.90
2017-11-03T02:23:59.224Z,99.90
2017-11-03T02:26:26.737Z,99.90
2017-11-03T02:28:54.436Z,99.90
2017-11-03T02:31:21.960Z,99.90
2017-11-03T02:33:49.514Z,99.90
2017-11-03T02:36:17.055Z,99.90
2017-11-03T02:38:44.561Z,99.90
2017-11-03T02:41:12.845Z,99.90
2017-11-03T02:43:41.128Z,99.90
2017-11-03T02:46:08.676Z,99.90
2017-11-03T02:48:36.261Z,99.90
2017-11-03T02:51:03.819Z,99.90
2017-11-03T02:53:31.321Z,99.90
2017-11-03T02:55:59.412Z,99.90
2017-11-03T02:58:27.707Z,99.90
2017-11-03T03:00:56.008Z,99.90
2017-11-03T03:03:23.526Z,99.90
2017-11-03T03:05:51.080Z,99.90
2017-11-03T03:08:18.620Z,99.90
2017-11-03T03:10:46.124Z,99.90
2017-11-03T03:13:13.645Z,99.90
2017-11-03T03:15:41.183Z,99.90
2017-11-03T03:18:08.702Z,99.90
2017-11-03T03:20:36.209Z,99.90
2017-11-03T03:23:03.748Z,99.90
2017-11-03T03:25:31.251Z,99.90
2017-11-03T03:27:58.764Z,99.90
2017-11-03T03:30:26.303Z,99.90
2017-11-03T03:32:53.842Z,99.90
2017-11-03T03:35:21.348Z,99.90
2017-11-03T03:37:48.876Z,99.90
2017-11-03T03:40:17.128Z,99.90
2017-11-03T03:42:44.642Z,99.90
2017-11-03T03:45:12.187Z,99.90
2017-11-03T03:47:39.707Z,99.90
2017-11-03T03:50:07.221Z,99.90
2017-11-03T03:52:34.767Z,99.90
2017-11-03T03:55:02.275Z,99.90
2017-11-03T03:57:29.801Z,99.90
2017-11-03T03:59:57.331Z,99.90
2017-11-03T04:02:24.851Z,99.90
2017-11-03T04:04:52.374Z,99.90
2017-11-03T04:07:19.941Z,99.90
2017-11-03T04:09:47.462Z,99.90
2017-11-03T04:12:15.755Z,99.90
2017-11-03T04:14:43.268Z,99.90
2017-11-03T04:17:10.793Z,99.90
2017-11-03T04:19:38.302Z,99.90
2017-11-03T04:22:06.596Z,99.90
2017-11-03T04:24:34.887Z,99.90
2017-11-03T04:27:02.397Z,99.90
2017-11-03T04:29:29.893Z,99.90
2017-11-03T04:31:57.420Z,99.90
2017-11-03T04:34:24.969Z,99.90
2017-11-03T04:36:52.489Z,99.90
2017-11-03T04:39:20.028Z,99.90
2017-11-03T04:41:48.332Z,99.90
2017-11-03T04:44:15.879Z,99.90
2017-11-03T04:46:43.399Z,99.90
2017-11-03T04:49:11.712Z,99.90
2017-11-03T04:51:39.239Z,99.90
2017-11-03T04:54:06.873Z,99.90
2017-11-03T04:56:34.389Z,99.90
2017-11-03T04:59:01.967Z,99.90
2017-11-03T05:01:29.490Z,99.90
2017-11-03T05:03:57.799Z,99.90
2017-11-03T05:06:25.336Z,99.90
2017-11-03T05:08:53.754Z,99.90
2017-11-03T05:11:21.303Z,99.90
2017-11-03T05:13:48.818Z,99.90
2017-11-03T05:16:16.345Z,99.90
2017-11-03T05:18:43.880Z,99.90
2017-11-03T05:21:11.393Z,99.90
2017-11-03T05:23:38.905Z,99.90
2017-11-03T05:26:06.420Z,99.90
2017-11-03T05:28:34.725Z,99.90
2017-11-03T05:31:02.253Z,99.90
2017-11-03T05:33:29.775Z,99.90
2017-11-03T05:35:57.825Z,99.90
2017-11-03T05:38:25.356Z,99.90
2017-11-03T05:40:53.630Z,99.90
2017-11-03T05:43:21.970Z,99.90
2017-11-03T05:45:49.501Z,99.90
2017-11-03T05:48:17.050Z,99.90
2017-11-03T05:50:44.594Z,99.90
2017-11-03T05:53:12.129Z,99.90
2017-11-03T05:55:39.646Z,99.90
2017-11-03T05:58:07.206Z,99.90
2017-11-03T06:00:34.719Z,99.90
2017-11-03T06:03:03.008Z,99.90
2017-11-03T06:05:31.301Z,99.90
2017-11-03T06:07:58.843Z,99.90
2017-11-03T06:10:26.368Z,99.90
2017-11-03T06:12:53.887Z,99.90
2017-11-03T06:15:21.421Z,99.90
2017-11-03T06:17:49.694Z,99.90
2017-11-03T06:20:17.218Z,99.90
2017-11-03T06:22:44.744Z,99.90
2017-11-03T06:25:12.428Z,99.90
2017-11-03T06:27:39.956Z,99.90
2017-11-03T06:30:07.464Z,99.90
2017-11-03T06:32:34.997Z,99.90
2017-11-03T06:35:02.525Z,99.90
2017-11-03T06:37:30.181Z,99.90
2017-11-03T06:39:57.719Z,99.90
2017-11-03T06:42:25.250Z,99.90
2017-11-03T06:44:52.776Z,99.90
2017-11-03T06:47:20.271Z,99.90
2017-11-03T06:49:47.792Z,99.90
2017-11-03T06:52:15.314Z,99.90
2017-11-03T06:54:42.995Z,99.90
2017-11-03T06:57:10.587Z,99.90
2017-11-03T06:59:38.106Z,99.90
2017-11-03T07:02:05.792Z,99.90
2017-11-03T07:04:33.395Z,99.90
2017-11-03T07:07:00.924Z,99.90
2017-11-03T07:09:28.458Z,99.90
2017-11-03T07:11:56.769Z,99.90
2017-11-03T07:14:24.348Z,99.90
2017-11-03T07:16:51.867Z,99.90
2017-11-03T07:19:20.164Z,99.90
2017-11-03T07:21:47.678Z,99.90
2017-11-03T07:24:15.208Z,99.90
2017-11-03T07:26:42.848Z,99.90
2017-11-03T07:29:10.367Z,99.90
2017-11-03T07:31:38.665Z,99.90
2017-11-03T07:34:07.023Z,99.90
2017-11-03T07:36:34.547Z,99.90
2017-11-03T07:39:02.863Z,99.90
2017-11-03T07:41:31.162Z,99.90
2017-11-03T07:43:58.671Z,99.90
2017-11-03T07:46:26.214Z,99.90
2017-11-03T07:48:53.741Z,99.90
2017-11-03T07:51:21.268Z,99.90
2017-11-03T07:53:48.793Z,99.90
2017-11-03T07:56:16.316Z,99.90
2017-11-03T07:58:43.842Z,99.90
2017-11-03T08:01:11.374Z,99.90
2017-11-03T08:03:38.889Z,99.90
2017-11-03T08:06:07.188Z,99.90
2017-11-03T08:08:34.751Z,99.90
2017-11-03T08:11:02.282Z,99.90
2017-11-03T08:13:30.581Z,99.90
2017-11-03T08:15:58.098Z,99.90
2017-11-03T08:18:25.659Z,99.90
2017-11-03T08:20:53.160Z,99.90
2017-11-03T08:23:20.683Z,99.90
2017-11-03T08:25:48.202Z,99.90
2017-11-03T08:28:15.794Z,99.90
2017-11-03T08:30:43.313Z,99.90
2017-11-03T08:33:10.831Z,99.90
2017-11-03T08:35:39.135Z,99.90
2017-11-03T08:38:06.659Z,99.90
2017-11-03T08:40:34.191Z,99.90
2017-11-03T08:43:01.719Z,99.90
2017-11-03T08:45:29.273Z,99.90
2017-11-03T08:47:56.824Z,99.90
2017-11-03T08:50:24.367Z,99.90
2017-11-03T08:52:51.893Z,99.90
2017-11-03T08:55:19.403Z,99.90
2017-11-03T08:57:46.924Z,99.90
2017-11-03T09:00:15.335Z,99.90
2017-11-03T09:02:42.912Z,99.90
2017-11-03T09:05:10.421Z,99.90
2017-11-03T09:07:38.042Z,99.90
2017-11-03T09:10:05.645Z,99.90
2017-11-03T09:12:33.159Z,99.90
2017-11-03T09:15:00.741Z,99.90
2017-11-03T09:17:28.259Z,99.90
2017-11-03T09:19:55.782Z,99.90
2017-11-03T09:22:23.303Z,99.90
2017-11-03T09:24:50.841Z,99.90
2017-11-03T09:27:19.169Z,99.90
2017-11-03T09:29:46.800Z,99.90
2017-11-03T09:32:14.301Z,99.90
2017-11-03T09:34:41.827Z,99.90
2017-11-03T09:37:09.344Z,99.90
2017-11-03T09:39:36.903Z,99.90
2017-11-03T09:42:05.180Z,99.90
2017-11-03T09:44:33.460Z,99.90
2017-11-03T09:47:01.746Z,99.90
2017-11-03T09:49:29.303Z,99.90
2017-11-03T09:51:56.900Z,99.90
2017-11-03T09:54:24.519Z,99.50
2017-11-03T09:56:52.803Z,99.70
2017-11-03T09:59:21.088Z,99.50
2017-11-03T10:01:48.674Z,99.50
2017-11-03T10:04:16.216Z,98.10
2017-11-03T10:06:43.808Z,97.90
2017-11-03T10:09:11.323Z,98.20
2017-11-03T10:11:39.619Z,99.20
2017-11-03T10:14:07.177Z,99.20
2017-11-03T10:16:34.726Z,99.90
2017-11-03T10:19:02.976Z,99.70
2017-11-03T10:21:30.498Z,99.20
2017-11-03T10:23:58.022Z,98.70
2017-11-03T10:26:25.540Z,98.70
2017-11-03T10:28:53.824Z,98.50
2017-11-03T10:31:21.386Z,97.90
2017-11-03T10:33:48.999Z,97.90
2017-11-03T10:36:16.541Z,98.60
2017-11-03T10:38:44.125Z,97.50
2017-11-03T10:41:11.668Z,96.30
2017-11-03T10:43:39.204Z,96.50
2017-11-03T10:46:07.481Z,96.50
2017-11-03T10:48:35.758Z,97.60
2017-11-03T10:51:04.052Z,97.90
2017-11-03T10:53:31.596Z,97.90
2017-11-03T10:55:59.100Z,98.30
2017-11-03T10:58:26.639Z,98.60
2017-11-03T11:00:54.165Z,98.20
2017-11-03T11:03:22.449Z,97.90
2017-11-03T11:05:49.968Z,97.80
2017-11-03T11:08:17.503Z,97.30
2017-11-03T11:10:45.023Z,97.30
2017-11-03T11:13:13.350Z,97.40
2017-11-03T11:15:40.901Z,97.40
2017-11-03T11:18:08.471Z,97.40
2017-11-03T11:20:36.001Z,97.50
2017-11-03T11:23:03.551Z,97.30
2017-11-03T11:25:31.070Z,97.10
2017-11-03T11:27:58.602Z,97.20
2017-11-03T11:30:26.135Z,97.10
2017-11-03T11:32:53.649Z,96.40
2017-11-03T11:35:21.210Z,95.70
2017-11-03T11:37:48.712Z,95.50
2017-11-03T11:40:16.564Z,95.50
2017-11-03T11:42:44.074Z,95.40
2017-11-03T11:45:11.678Z,94.90
2017-11-03T11:47:39.212Z,94.50
2017-11-03T11:50:06.755Z,94.60
2017-11-03T11:52:34.277Z,94.10
2017-11-03T11:55:01.810Z,94.10
2017-11-03T11:57:29.341Z,94.00
2017-11-03T11:59:56.866Z,94.10
2017-11-03T12:02:24.419Z,94.50
2017-11-03T12:04:51.950Z,94.90
2017-11-03T12:07:19.481Z,94.50
2017-11-03T12:09:47.068Z,95.00
2017-11-03T12:12:14.587Z,95.10
2017-11-03T12:14:42.107Z,95.50
2017-11-03T12:17:10.402Z,95.30
2017-11-03T12:19:37.923Z,95.30
2017-11-03T12:22:05.415Z,95.70
2017-11-03T12:24:32.948Z,96.00
2017-11-03T12:27:00.482Z,96.80
2017-11-03T12:29:27.995Z,97.10
2017-11-03T12:31:55.513Z,97.10
2017-11-03T12:34:23.048Z,97.00
2017-11-03T12:36:50.564Z,97.20
2017-11-03T12:39:18.091Z,97.00
2017-11-03T12:41:45.624Z,96.70
2017-11-03T12:44:13.158Z,96.10
2017-11-03T12:46:40.670Z,95.50
2017-11-03T12:49:08.272Z,95.10
2017-11-03T12:51:35.808Z,95.60
2017-11-03T12:54:04.085Z,96.30
2017-11-03T12:56:32.381Z,96.60
2017-11-03T12:58:59.918Z,96.60
2017-11-03T13:01:27.465Z,96.00
2017-11-03T13:03:55.048Z,96.60
2017-11-03T13:06:22.576Z,96.80
2017-11-03T13:08:50.267Z,96.90
2017-11-03T13:11:18.590Z,95.80
2017-11-03T13:13:46.109Z,95.80
2017-11-03T13:16:14.414Z,97.00
2017-11-03T13:18:41.945Z,96.90
2017-11-03T13:21:10.303Z,97.30
2017-11-03T13:23:37.869Z,97.30
2017-11-03T13:26:05.395Z,97.30
2017-11-03T13:28:32.926Z,97.30
2017-11-03T13:31:00.529Z,97.30
2017-11-03T13:33:28.072Z,96.90
2017-11-03T13:35:55.583Z,97.50
2017-11-03T13:38:23.918Z,97.30
2017-11-03T13:40:51.459Z,97.30
2017-11-03T13:43:19.112Z,97.10
2017-11-03T13:45:46.641Z,96.70
2017-11-03T13:48:14.931Z,95.60
2017-11-03T13:50:42.508Z,95.60
2017-11-03T13:53:10.033Z,95.30
2017-11-03T13:55:38.328Z,94.50
2017-11-03T13:58:06.617Z,94.70
2017-11-03T14:00:34.144Z,94.70
2017-11-03T14:03:01.685Z,95.60
2017-11-03T14:05:29.258Z,96.10
2017-11-03T14:07:56.798Z,97.10
2017-11-03T14:10:24.332Z,97.30
2017-11-03T14:12:51.883Z,97.40
2017-11-03T14:15:19.475Z,97.70
2017-11-03T14:17:47.000Z,97.50
2017-11-03T14:20:14.523Z,97.20
2017-11-03T14:22:42.826Z,97.10
2017-11-03T14:25:10.377Z,97.10
2017-11-03T14:27:37.958Z,97.20
2017-11-03T14:30:05.475Z,96.70
2017-11-03T14:32:33.036Z,96.50
2017-11-03T14:35:01.349Z,96.40
2017-11-03T14:37:28.983Z,96.30
2017-11-03T14:39:57.297Z,96.40
2017-11-03T14:42:25.065Z,96.40
2017-11-03T14:44:52.723Z,97.40
2017-11-03T14:47:20.281Z,97.30
2017-11-03T14:49:47.873Z,96.30
2017-11-03T14:52:15.701Z,96.40
2017-11-03T14:54:43.278Z,96.10
2017-11-03T14:57:10.836Z,96.20
2017-11-03T14:59:38.359Z,96.60
2017-11-03T15:02:06.676Z,99.90
2017-11-03T15:04:34.234Z,99.90
2017-11-03T15:07:01.794Z,99.90
2017-11-03T15:09:29.350Z,99.90
2017-11-03T15:11:56.962Z,99.90
2017-11-03T15:14:24.480Z,99.90
2017-11-03T15:16:52.018Z,99.90
2017-11-03T15:19:19.579Z,99.90
2017-11-03T15:21:47.087Z,99.90
2017-11-03T15:24:14.628Z,99.90
2017-11-03T15:26:42.223Z,99.90
2017-11-03T15:29:09.764Z,99.90
2017-11-03T15:31:37.525Z,99.90
2017-11-03T15:34:05.111Z,99.90
2017-11-03T15:36:32.667Z,99.90
2017-11-03T15:39:01.011Z,99.90
2017-11-03T15:41:28.660Z,99.90
2017-11-03T15:43:56.167Z,99.90
2017-11-03T15:46:23.697Z,99.90
2017-11-03T15:48:51.367Z,99.90
2017-11-03T15:51:18.919Z,99.90
2017-11-03T15:53:46.487Z,99.90
2017-11-03T15:56:14.016Z,99.90
2017-11-03T15:58:41.547Z,99.90
2017-11-03T16:01:09.097Z,99.90
2017-11-03T16:03:37.433Z,99.90
2017-11-03T16:06:05.038Z,99.90
2017-11-03T16:08:33.354Z,99.90
2017-11-03T16:11:00.894Z,99.90
2017-11-03T16:13:28.449Z,99.90
2017-11-03T16:15:55.992Z,99.90
2017-11-03T16:18:23.524Z,99.90
2017-11-03T16:20:51.054Z,99.90
2017-11-03T16:23:18.570Z,99.90
2017-11-03T16:25:46.090Z,99.90
2017-11-03T16:28:14.408Z,99.90
2017-11-03T16:30:42.749Z,99.90
2017-11-03T16:33:11.266Z,99.90
2017-11-03T16:35:38.800Z,99.90
2017-11-03T16:38:23.045Z,99.90
2017-11-03T16:40:50.568Z,99.90
2017-11-03T16:43:18.137Z,99.90
2017-11-03T16:45:45.652Z,99.90
2017-11-03T16:48:13.213Z,99.90
2017-11-03T16:50:40.746Z,99.90
2017-11-03T16:53:08.305Z,99.90
2017-11-03T16:55:35.835Z,99.90
2017-11-03T16:58:03.390Z,99.90
2017-11-03T17:00:30.970Z,99.90
2017-11-03T17:02:58.506Z,99.90
2017-11-03T17:05:26.046Z,99.90
2017-11-03T17:07:53.548Z,99.90
2017-11-03T17:10:21.072Z,99.90
2017-11-03T17:12:49.366Z,99.90
2017-11-03T17:15:16.900Z,99.90
2017-11-03T17:17:44.652Z,99.90
2017-11-03T17:20:12.297Z,99.90
2017-11-03T17:22:40.692Z,99.90
2017-11-03T17:25:08.253Z,99.90
2017-11-03T17:27:36.659Z,99.90
2017-11-03T17:30:04.358Z,99.90
2017-11-03T17:32:36.529Z,99.90
2017-11-03T17:35:04.486Z,99.90
2017-11-03T17:37:32.119Z,99.90
2017-11-03T17:40:00.506Z,99.90
2017-11-03T17:42:28.152Z,99.90
2017-11-03T17:44:56.263Z,99.90
2017-11-03T17:47:23.818Z,99.90
2017-11-03T17:49:51.374Z,99.90
2017-11-03T17:52:18.900Z,99.90
2017-11-03T17:54:47.218Z,99.90
2017-11-03T17:57:14.739Z,99.90
2017-11-03T17:59:42.275Z,99.90
2017-11-03T18:02:09.913Z,99.90
2017-11-03T18:04:37.450Z,99.90
2017-11-03T18:07:05.047Z,99.90
2017-11-03T18:09:32.601Z,99.90
2017-11-03T18:12:01.156Z,99.90
2017-11-03T18:14:28.826Z,99.90
2017-11-03T18:16:56.354Z,99.90
2017-11-03T18:19:24.761Z,99.90
2017-11-03T18:21:52.276Z,99.90
2017-11-03T18:24:20.346Z,99.90
2017-11-03T18:26:47.960Z,99.90
2017-11-03T18:29:15.505Z,99.90
2017-11-03T18:31:43.066Z,99.90
2017-11-03T18:34:10.597Z,99.90
2017-11-03T18:36:39.251Z,99.90
2017-11-03T18:39:07.003Z,99.90
2017-11-03T18:41:34.564Z,99.90
2017-11-03T18:44:02.444Z,99.90
2017-11-03T18:46:29.975Z,99.90
2017-11-03T18:48:57.562Z,99.90
2017-11-03T18:51:25.107Z,99.90
2017-11-03T18:53:52.742Z,99.90
2017-11-03T18:56:20.327Z,99.90
2017-11-03T18:58:47.887Z,99.90
2017-11-03T19:01:17.587Z,99.90
2017-11-03T19:03:45.203Z,99.90
2017-11-03T19:06:12.828Z,99.90
2017-11-03T19:08:40.571Z,99.90
2017-11-03T19:11:09.375Z,99.90
2017-11-03T19:13:37.107Z,99.90
2017-11-03T19:16:05.578Z,99.90
2017-11-03T19:18:34.391Z,99.90
2017-11-03T19:21:02.743Z,99.90
2017-11-03T19:23:30.450Z,99.90
2017-11-03T19:25:58.116Z,99.90
2017-11-03T19:28:25.747Z,99.90
2017-11-03T19:30:53.386Z,99.90
2017-11-03T19:33:21.816Z,99.90
2017-11-03T19:35:49.437Z,99.90
2017-11-03T19:38:17.045Z,99.90
2017-11-03T19:40:44.566Z,99.90
2017-11-03T19:43:12.105Z,99.90
2017-11-03T19:45:39.654Z,99.90
2017-11-03T19:48:07.234Z,99.90
2017-11-03T19:50:35.533Z,99.90
2017-11-03T19:53:04.015Z,99.90
2017-11-03T19:55:31.571Z,99.90
2017-11-03T19:57:59.104Z,99.90
2017-11-03T20:00:26.651Z,99.90
2017-11-03T20:02:54.172Z,99.90
2017-11-03T20:05:22.587Z,99.90
2017-11-03T20:07:50.168Z,99.90
2017-11-03T20:10:17.806Z,99.90
2017-11-03T20:12:46.220Z,99.90
2017-11-03T20:15:14.938Z,99.90
2017-11-03T20:17:42.451Z,99.90
2017-11-03T20:20:10.104Z,99.90
2017-11-03T20:22:37.682Z,99.90
2017-11-03T20:25:05.220Z,99.90
2017-11-03T20:27:32.777Z,99.90
2017-11-03T20:30:00.432Z,99.90
2017-11-03T20:32:27.961Z,99.90
2017-11-03T20:34:55.494Z,99.90
2017-11-03T20:37:23.781Z,99.90
2017-11-03T20:39:51.323Z,99.90
2017-11-03T20:42:18.862Z,99.90
2017-11-03T20:44:46.409Z,99.90
2017-11-03T20:47:14.222Z,99.90
2017-11-03T20:49:42.519Z,99.90
2017-11-03T20:52:10.039Z,99.90
2017-11-03T20:54:37.568Z,99.90
2017-11-03T20:57:05.125Z,99.90
2017-11-03T20:59:32.742Z,99.90
2017-11-03T21:02:01.153Z,99.90
2017-11-03T21:04:28.767Z,99.90
2017-11-03T21:06:56.323Z,99.90
2017-11-03T21:09:23.854Z,99.90
2017-11-03T21:11:52.266Z,99.90
2017-11-03T21:14:21.064Z,99.90
2017-11-03T21:16:48.608Z,99.90
2017-11-03T21:19:16.210Z,99.90
2017-11-03T21:21:43.953Z,99.90
2017-11-03T21:24:12.393Z,99.90
2017-11-03T21:26:39.948Z,99.90
2017-11-03T21:29:07.469Z,99.90
2017-11-03T21:31:34.994Z,99.90
2017-11-03T21:34:02.510Z,99.90
2017-11-03T21:36:30.217Z,99.90
2017-11-03T21:38:57.737Z,99.90
2017-11-03T21:41:26.421Z,99.90
2017-11-03T21:43:54.030Z,99.90
2017-11-03T21:46:21.598Z,99.90
2017-11-03T21:48:49.915Z,99.90
2017-11-03T21:51:17.475Z,99.90
2017-11-03T21:53:44.998Z,99.90
2017-11-03T21:56:13.306Z,99.90
2017-11-03T21:58:40.908Z,99.90
2017-11-03T22:01:08.439Z,99.90
2017-11-03T22:03:35.988Z,99.90
2017-11-03T22:06:03.507Z,99.90
2017-11-03T22:08:31.077Z,99.90
2017-11-03T22:10:58.635Z,99.90
2017-11-03T22:13:26.961Z,99.90
2017-11-03T22:15:54.501Z,99.90
2017-11-03T22:18:22.033Z,99.90
2017-11-03T22:20:49.593Z,99.90
2017-11-03T22:23:17.184Z,99.90
2017-11-03T22:25:44.822Z,99.90
2017-11-03T22:28:13.117Z,99.90
2017-11-03T22:30:41.076Z,99.90
2017-11-03T22:33:09.385Z,99.90
2017-11-03T22:35:36.897Z,99.90
2017-11-03T22:38:05.204Z,99.90
2017-11-03T22:40:32.735Z,99.90
2017-11-03T22:43:00.317Z,99.90
2017-11-03T22:45:27.933Z,99.90
2017-11-03T22:47:55.488Z,99.90
2017-11-03T22:50:23.033Z,99.90
2017-11-03T22:52:50.549Z,99.90
2017-11-03T22:55:18.130Z,99.90
2017-11-03T22:57:45.691Z,99.90
2017-11-03T23:00:13.222Z,99.90
2017-11-03T23:02:41.531Z,99.90
2017-11-03T23:05:09.069Z,99.90
2017-11-03T23:07:36.603Z,99.90
2017-11-03T23:10:04.156Z,99.90
2017-11-03T23:12:31.649Z,99.90
2017-11-03T23:14:59.202Z,99.90
2017-11-03T23:17:26.771Z,99.90
2017-11-03T23:19:54.304Z,99.90
2017-11-03T23:22:21.860Z,99.90
2017-11-03T23:24:50.154Z,99.90
2017-11-03T23:27:18.458Z,99.90
2017-11-03T23:29:46.000Z,99.90
2017-11-03T23:32:13.564Z,99.90
2017-11-03T23:34:41.091Z,99.90
2017-11-03T23:37:08.610Z,99.90
2017-11-03T23:39:36.140Z,99.90
2017-11-03T23:42:03.705Z,99.90
2017-11-03T23:44:31.254Z,99.90
2017-11-03T23:46:58.801Z,99.90
2017-11-03T23:49:26.325Z,99.90
2017-11-03T23:51:53.864Z,99.90
2017-11-03T23:54:21.474Z,99.90
2017-11-03T23:56:48.981Z,99.90
2017-11-03T23:59:16.520Z,99.90
